Observations for VILLAFRANCA CV MIL, Italy (LIPX)

LIPX 100220Z 23011KT CAVOK 05/02 Q1010  
LIPX 100150Z 24008KT CAVOK 05/01 Q1010  
LIPX 100120Z 23005KT CAVOK 05/01 Q1010  
LIPX 100050Z VRB02KT CAVOK 06/02 Q1010  
LIPX 100020Z 09006KT CAVOK 05/02 Q1010  
LIPX 092350Z 28010KT CAVOK 06/03 Q1009  
LIPX 092320Z 26014KT CAVOK 07/03 Q1009  
LIPX 092250Z 27012KT CAVOK 08/04 Q1009  
LIPX 092220Z 27010KT CAVOK 08/04 Q1008  
LIPX 092150Z VRB04KT CAVOK 07/04 Q1008  
LIPX 092120Z 27010KT CAVOK 08/04 Q1008  
LIPX 092050Z 27010KT CAVOK 07/04 Q1008  
LIPX 092020Z 28009KT CAVOK 07/04 Q1008  
LIPX 091950Z 27012KT CAVOK 07/04 Q1008  
LIPX 091920Z 26013KT 8000 NSC 07/04 Q1007   
LIPX 091850Z 28008KT 260V330 8000 NSC 07/04 Q1007   
LIPX 091820Z 33003KT 280V360 8000 NSC 05/03 Q1007   
LIPX 091750Z 10003KT 060V140 8000 NSC 05/04 Q1007   
LIPX 091720Z VRB02KT 8000 NSC 06/04 Q1007   
LIPX 091650Z 16003KT 120V240 8000 NSC 06/05 Q1007   
LIPX 091620Z 15004KT 120V180 8000 NSC 06/04 Q1007   
LIPX 091550Z 24007KT CAVOK 07/04 Q1007  
LIPX 091520Z 24008KT 9999 FEW080 08/04 Q1007
LIPX 091450Z 25007KT 9999 FEW080 09/04 Q1007
LIPX 091420Z 24007KT 9999 FEW080 10/05 Q1007
LIPX 091350Z 25008KT 9999 FEW080 09/04 Q1007
LIPX 091320Z 23007KT 9999 FEW080 09/06 Q1007
LIPX 091250Z 25010KT 9999 FEW080 10/04 Q1007
LIPX 091220Z 26004KT 230V300 CAVOK 10/05 Q1007  
LIPX 091120Z 27004KT 240V330 CAVOK 10/05 Q1007  
LIPX 091050Z 21004KT 170V240 CAVOK 09/04 Q1007  
LIPX 091020Z 22004KT CAVOK 09/06 Q1007  
LIPX 090950Z 21003KT 180V250 9999 FEW070 08/05 Q1007
LIPX 090920Z 36004KT 310V030 CAVOK 06/03 Q1007  
LIPX 090850Z VRB02KT CAVOK 05/02 Q1006  
LIPX 090820Z 34006KT CAVOK 03/01 Q1007  
LIPX 090750Z 34004KT CAVOK 01/M00 Q1007 
LIPX 090720Z 32004KT CAVOK 00/M01 Q1007 
LIPX 090650Z 32005KT CAVOK M00/M01 Q1008
LIPX 090620Z 36003KT CAVOK 00/M01 Q1008 
LIPX 090550Z 34002KT 7000 NSC M00/M01 Q1008 
LIPX 090520Z 35003KT 4000 BR NSC M00/M01 Q1009  
LIPX 090450Z 36003KT 4000 BR NSC 00/M01 Q1009   
LIPX 090420Z 31003KT 4000 BR NSC 00/M00 Q1009   
LIPX 090350Z 33003KT 4000 BR NSC 00/M00 Q1010